Data for 05/22/2016

Time Sea-Level Adjusted Pressure Absolute Pressure Temperature Relative Humidity Dew Point   
(mb) (inHg) (mb) (inHg) (C) (F) (%) (C) (F)
00:05 1012 29.88 841 24.83 7.7 45.8 46 -3.2 26.2
00:10 1012 29.88 841 24.83 7.7 45.8 44 -3.9 25.1
00:15 1012 29.88 841 24.83 7.7 45.9 45 -3.5 25.7
00:20 1012 29.88 841 24.83 7.5 45.5 44 -3.9 25
00:25 1012 29.88 841 24.83 7.4 45.4 45 -3.8 25.1
00:30 1012 29.88 841 24.83 7.3 45.2 43 -4.5 24
00:35 1012 29.88 841 24.83 7.3 45.1 44 -4.1 24.5
00:40 1012 29.88 841 24.83 7.3 45.1 43 -4.4 24
00:45 1012 29.88 841 24.83 7.1 44.7 46 -3.8 25.2
00:50 1012 29.88 841 24.83 6.8 44.3 45 -4.4 24.1
00:55 1012 29.88 841 24.83 7 44.6 42 -4.9 23.2
01:00 1012 29.88 841 24.83 7 44.5 46 -3.7 25.3
01:05 1012 29.88 841 24.83 6.5 43.7 46 -4.4 24.1
01:10 1012 29.88 841 24.83 6.5 43.7 46 -4.2 24.5
01:15 1012 29.88 841 24.83 6.1 43 52 -3 26.6
01:20 1012 29.88 841 24.83 5.3 41.5 54 -3.3 26
01:25 1012 29.88 841 24.83 4.9 40.9 53 -3.8 25.2
01:30 1012 29.88 841 24.83 4.9 40.9 57 -2.9 26.8
01:35 1012 29.88 841 24.83 4.6 40.2 61 -2.2 28
01:40 1012 29.88 841 24.83 4.2 39.5 59 -3.2 26.3
01:45 1012 29.88 841 24.83 4.4 40 57 -3.4 25.8
01:50 1012 29.88 841 24.83 4.5 40 60 -2.7 27.2
01:55 1012 29.88 841 24.83 4.3 39.8 56 -3.6 25.6
02:00 1012 29.88 841 24.83 4.5 40.1 52 -4.4 24
02:05 1012 29.88 841 24.83 4.9 40.8 57 -3 26.6
02:10 1012 29.88 842 24.86 4.6 40.2 60 -2.5 27.5
02:15 1012 29.88 842 24.86 3.6 38.5 63 -2.7 27.2
02:20 1012 29.88 842 24.86 3.3 38 61 -3.4 25.9
02:25 1012 29.88 842 24.86 3.6 38.4 60 -3.4 25.8
02:30 1012 29.88 842 24.86 3.6 38.5 62 -2.9 26.8
02:35 1012 29.88 842 24.86 3.4 38.2 62 -3.2 26.3
02:40 1012 29.88 842 24.86 3.3 37.9 62 -3.3 26.1
02:45 1012 29.88 842 24.86 3.7 38.7 63 -2.6 27.3
02:50 1012 29.88 842 24.86 3.4 38 66 -2.5 27.6
02:55 1013 29.91 842 24.86 3.1 37.6 64 -3.1 26.5
03:00 1013 29.91 842 24.86 3.2 37.7 65 -2.8 27
03:05 1012 29.88 842 24.86 3.2 37.8 66 -2.6 27.3
03:10 1012 29.88 842 24.86 3.3 37.9 65 -2.7 27.1
03:15 1012 29.88 842 24.86 3.3 38 65 -2.7 27.1
03:20 1012 29.88 842 24.86 3 37.4 66 -2.7 27.2
03:25 1012 29.88 842 24.86 2.8 37 67 -2.7 27.1
03:30 1012 29.88 842 24.86 2.5 36.4 67 -3 26.6
03:35 1012 29.88 842 24.86 2.4 36.3 64 -3.7 25.3
03:40 1012 29.88 842 24.86 2.4 36.4 66 -3.3 26
03:45 1012 29.88 842 24.86 2.4 36.2 66 -3.3 26
03:50 1012 29.88 842 24.86 2.3 36.2 66 -3.4 25.8
03:55 1012 29.88 842 24.86 2.6 36.6 65 -3.4 25.9
04:00 1012 29.88 842 24.86 2.6 36.6 66 -3.1 26.4
04:05 1012 29.88 842 24.86 2.3 36.1 68 -3.1 26.4
04:10 1012 29.88 842 24.86 2.4 36.3 65 -3.6 25.6
04:15 1012 29.88 842 24.86 2.4 36.3 65 -3.6 25.5
04:20 1012 29.88 842 24.86 2.4 36.4 62 -4 24.7
04:25 1012 29.88 842 24.86 3.1 37.6 57 -4.5 23.8
04:30 1012 29.88 841 24.83 3.4 38 59 -4 24.8
04:35 1012 29.88 841 24.83 2.9 37.2 62 -3.8 25.2
04:40 1012 29.88 841 24.83 2.5 36.5 65 -3.5 25.7
04:45 1012 29.88 841 24.83 2 35.6 65 -3.8 25.1
04:50 1012 29.88 841 24.83 2.1 35.8 64 -4 24.8
04:55 1012 29.88 841 24.83 2.4 36.3 65 -3.5 25.7
05:00 1012 29.88 841 24.83 2.2 36 66 -3.4 25.9
05:05 1012 29.88 842 24.86 2.3 36.1 66 -3.5 25.8
05:10 1012 29.88 842 24.86 2.4 36.3 66 -3.3 26.1
05:15 1012 29.88 842 24.86 2.6 36.7 65 -3.4 25.9
05:20 1012 29.88 842 24.86 2.8 37.1 64 -3.3 26
05:25 1012 29.88 842 24.86 3.1 37.5 63 -3.2 26.3
05:30 1012 29.88 841 24.83 3.2 37.7 62 -3.4 25.9
05:35 1012 29.88 842 24.86 3.5 38.4 60 -3.6 25.6
05:40 1012 29.88 842 24.86 3.8 38.8 60 -3.3 26
05:45 1012 29.88 842 24.86 3.7 38.7 60 -3.2 26.2
05:50 1012 29.88 842 24.86 3.8 38.9 59 -3.4 25.9
05:55 1012 29.88 842 24.86 4.1 39.3 58 -3.4 25.8
06:00 1012 29.88 842 24.86 4.4 39.8 56 -3.6 25.5
06:05 1012 29.88 842 24.86 4.6 40.4 56 -3.4 25.8
06:10 1012 29.88 842 24.86 4.7 40.5 55 -3.5 25.7
06:15 1012 29.88 842 24.86 5.2 41.3 52 -4 24.8
06:20 1012 29.88 842 24.86 5.6 42.1 52 -3.5 25.7
06:25 1012 29.88 842 24.86 6.2 43.1 50 -3.3 26
06:30 1012 29.88 842 24.86 6.7 44 48 -3.6 25.5
06:35 1012 29.88 842 24.86 7.2 44.9 46 -3.7 25.4
06:40 1012 29.88 842 24.86 7.6 45.8 46 -3.4 25.9
06:45 1012 29.88 842 24.86 8.2 46.7 46 -2.8 26.9
06:50 1012 29.88 842 24.86 8.5 47.3 43 -3.2 26.3
06:55 1012 29.88 842 24.86 8.5 47.3 42 -3.8 25.2
07:00 1012 29.88 842 24.86 8.4 47.1 42 -3.7 25.3
07:05 1012 29.88 842 24.86 8.9 47.9 43 -2.9 26.7
07:10 1012 29.88 842 24.86 9.4 48.9 44 -2.2 28.1
07:15 1012 29.88 842 24.86 8.8 47.8 42 -3.3 26
07:20 1012 29.88 842 24.86 8.6 47.5 44 -3 26.6
07:25 1012 29.88 841 24.83 8.5 47.3 44 -3 26.5
07:30 1012 29.88 841 24.83 8.2 46.8 43 -3.4 25.8
07:35 1012 29.88 841 24.83 8.5 47.4 42 -3.7 25.3
07:40 1012 29.88 841 24.83 9 48.2 36 -5.3 22.5
07:45 1012 29.88 841 24.83 9.6 49.3 35 -5.1 22.9
07:50 1012 29.88 841 24.83 9.6 49.2 34 -5.6 21.9
07:55 1012 29.88 841 24.83 9.3 48.8 34 -5.7 21.7
08:00 1012 29.88 841 24.83 9.5 49 33 -5.9 21.4
08:05 1012 29.88 841 24.83 9.4 48.9 35 -5.2 22.6
08:10 1012 29.88 841 24.83 9.6 49.3 32 -6.3 20.7
08:15 1012 29.88 841 24.83 9.9 49.8 32 -6 21.1
08:20 1012 29.88 841 24.83 10 49.9 30 -6.9 19.6
08:25 1012 29.88 841 24.83 9.9 49.7 30 -6.8 19.7
08:30 1012 29.88 841 24.83 10 50 29 -7.3 18.9
08:35 1012 29.88 841 24.83 9.9 49.8 32 -6.1 21
08:40 1012 29.88 841 24.83 10 50.1 30 -6.9 19.7
08:45 1012 29.88 841 24.83 10 50.1 28 -7.5 18.6
08:50 1012 29.88 841 24.83 10 50.1 29 -7.1 19.2
08:55 1012 29.88 841 24.83 10.1 50.2 30 -6.6 20.1
09:00 1012 29.88 841 24.83 10.3 50.5 29 -6.9 19.6
09:05 1012 29.88 841 24.83 10.3 50.6 27 -7.8 17.9
09:10 1012 29.88 841 24.83 10.3 50.6 29 -7 19.5
09:15 1012 29.88 841 24.83 10.3 50.5 29 -6.9 19.6
09:20 1012 29.88 841 24.83 10.4 50.7 29 -7.1 19.3
09:25 1012 29.88 841 24.83 10.4 50.7 29 -6.7 20
09:30 1012 29.88 841 24.83 10.5 50.9 31 -5.7 21.7
09:35 1012 29.88 841 24.83 10.4 50.7 31 -6.2 20.9
09:40 1012 29.88 841 24.83 10.2 50.4 31 -6 21.2
09:45 1012 29.88 841 24.83 10.3 50.5 33 -5.2 22.7
09:50 1012 29.88 841 24.83 10.4 50.7 33 -5 22.9
09:55 1012 29.88 841 24.83 10.6 51 31 -5.8 21.6
10:00 1012 29.88 841 24.83 10.7 51.3 31 -5.7 21.8
10:05 1012 29.88 841 24.83 11.6 52.9 28 -6.5 20.4
10:10 1012 29.88 841 24.83 11.9 53.3 29 -5.4 22.2
10:15 1012 29.88 841 24.83 12.1 53.9 27 -6.5 20.4
10:20 1012 29.88 841 24.83 12.1 53.9 28 -5.9 21.4
10:25 1012 29.88 841 24.83 11.8 53.2 27 -6.6 20
10:30 1012 29.88 841 24.83 11.4 52.6 29 -6 21.1
10:35 1012 29.88 841 24.83 11.2 52.1 30 -5.9 21.4
10:40 1012 29.88 841 24.83 11.1 52 30 -6 21.3
10:45 1012 29.88 841 24.83 11 51.8 31 -5.5 22.1
10:50 1012 29.88 841 24.83 11 51.8 29 -6.3 20.7
10:55 1012 29.88 841 24.83 11.1 51.9 26 -7.6 18.4
11:00 1012 29.88 841 24.83 11.9 53.4 25 -7.3 18.9
11:05 1012 29.88 841 24.83 11.9 53.5 27 -6.5 20.3
11:10 1012 29.88 841 24.83 12.3 54.2 26 -6.4 20.5
11:15 1011 29.85 841 24.83 12.4 54.3 27 -6.3 20.7
11:20 1011 29.85 841 24.83 12.6 54.6 26 -6.6 20.1
11:25 1011 29.85 841 24.83 12.1 53.7 26 -6.8 19.8
11:30 1011 29.85 840 24.81 12.2 53.9 27 -6.1 21
11:35 1011 29.85 840 24.81 11.8 53.2 28 -6.2 20.8
11:40 1011 29.85 840 24.81 12 53.6 26 -6.7 19.9
11:45 1011 29.85 840 24.81 12.4 54.3 27 -6 21.1
11:50 1011 29.85 840 24.81 13.1 55.6 23 -7.2 19
11:55 1011 29.85 840 24.81 13.1 55.6 23 -7.4 18.7
12:00 1011 29.85 840 24.81 12.7 54.8 25 -6.9 19.6
12:05 1011 29.85 840 24.81 13 55.4 23 -7.5 18.6
12:10 1011 29.85 840 24.81 13.3 56 23 -7.1 19.2
12:15 1011 29.85 840 24.81 13.4 56.2 24 -6.9 19.6
12:20 1011 29.85 840 24.81 13.2 55.7 24 -6.8 19.7
12:25 1011 29.85 840 24.81 13.3 55.9 24 -7 19.4
12:30 1011 29.85 840 24.81 13.4 56.1 25 -6.2 20.8
12:35 1011 29.85 840 24.81 13 55.4 30 -4.2 24.4
12:40 1011 29.85 840 24.81 12.8 55.1 27 -5.6 22
12:45 1011 29.85 840 24.81 12.4 54.4 28 -5.4 22.3
12:50 1011 29.85 840 24.81 12.8 55 26 -6.4 20.4
12:55 1011 29.85 840 24.81 13 55.3 26 -6.2 20.8
13:00 1011 29.85 840 24.81 13 55.4 27 -5.3 22.5
13:05 1011 29.85 840 24.81 13.1 55.6 30 -4.2 24.5
13:10 1011 29.85 840 24.81 12.9 55.2 29 -4.9 23.3
13:15 1011 29.85 840 24.81 13.2 55.7 29 -4.3 24.3
13:20 1011 29.85 840 24.81 13 55.4 31 -3.7 25.4
13:25 1011 29.85 840 24.81 13.2 55.8 24 -6.7 20
13:30 1011 29.85 840 24.81 13.1 55.5 25 -6.6 20.2
13:35 1011 29.85 840 24.81 13.6 56.4 24 -6.4 20.4
13:40 1011 29.85 840 24.81 13.8 56.9 24 -6.2 20.8
13:45 1011 29.85 840 24.81 13.8 56.8 24 -6.5 20.3
13:50 1011 29.85 840 24.81 13.6 56.5 25 -6.2 20.9
13:55 1011 29.85 840 24.81 14.1 57.4 24 -6.1 21
14:00 1011 29.85 840 24.81 14.1 57.4 24 -6.2 20.8
14:05 1011 29.85 840 24.81 13.9 56.9 23 -6.6 20
14:10 1011 29.85 840 24.81 13.9 57 25 -6 21.3
14:15 1011 29.85 840 24.81 13.8 56.8 25 -5.8 21.5
14:20 1011 29.85 840 24.81 14 57.2 26 -5.2 22.6
14:25 1011 29.85 840 24.81 14.4 57.8 25 -5.3 22.4
14:30 1010 29.83 840 24.81 14 57.2 26 -5.3 22.5
14:35 1010 29.83 840 24.81 14.2 57.5 26 -5 22.9
14:40 1010 29.83 840 24.81 14.3 57.7 27 -4.2 24.4
14:45 1010 29.83 840 24.81 14.5 58.2 26 -4.6 23.7
14:50 1011 29.85 840 24.81 14 57.3 35 -1 30.1
14:55 1011 29.85 840 24.81 12.1 53.7 44 0.4 32.7
15:00 1011 29.85 840 24.81 10.8 51.4 43 -1.3 29.6
15:05 1011 29.85 840 24.81 10.1 50.2 46 -1.1 30.1
15:10 1011 29.85 840 24.81 9.7 49.5 47 -0.9 30.4
15:15 1011 29.85 840 24.81 9.6 49.2 45 -1.6 29
15:20 1011 29.85 840 24.81 9.7 49.4 44 -1.8 28.7
15:25 1011 29.85 840 24.81 10.5 51 36 -3.8 25.2
15:30 1011 29.85 840 24.81 11.1 51.9 40 -1.9 28.6
15:35 1011 29.85 840 24.81 11.2 52.1 40 -1.8 28.7
15:40 1011 29.85 840 24.81 11.4 52.5 37 -2.8 27
15:45 1011 29.85 840 24.81 11.8 53.3 36 -2.9 26.9
15:50 1011 29.85 840 24.81 12 53.7 34 -3.2 26.2
15:55 1011 29.85 840 24.81 11.8 53.2 35 -3.1 26.5
16:00 1011 29.85 840 24.81 12.2 53.9 41 -0.7 30.7
16:05 1011 29.85 840 24.81 9.9 49.8 50 -0.1 31.9
16:10 1011 29.85 840 24.81 9.2 48.6 52 -0.1 31.8
16:15 1011 29.85 840 24.81 9.4 48.9 54 0.5 32.9
16:20 1011 29.85 840 24.81 9.3 48.8 53 0.3 32.6
16:25 1011 29.85 840 24.81 9.5 49.2 51 0.1 32.1
16:30 1011 29.85 840 24.81 9.4 49 52 0.1 32.1
16:35 1011 29.85 840 24.81 10 49.9 48 -0.5 31.1
16:40 1011 29.85 840 24.81 10.3 50.6 44 -1.2 29.8
16:45 1011 29.85 840 24.81 10.5 50.8 42 -1.9 28.5
16:50 1011 29.85 840 24.81 10.9 51.7 40 -2.2 28
16:55 1011 29.85 840 24.81 11.3 52.3 36 -3.1 26.5
17:00 1011 29.85 840 24.81 11.9 53.4 34 -3.6 25.6
17:05 1011 29.85 840 24.81 11.8 53.3 34 -3.3 26
17:10 1011 29.85 840 24.81 12.2 53.9 30 -4.9 23.2
17:15 1011 29.85 840 24.81 12.3 54.1 30 -5 23.1
17:20 1011 29.85 840 24.81 12.3 54.1 29 -5 23.1
17:25 1011 29.85 840 24.81 12.3 54.1 30 -4.6 23.8
17:30 1011 29.85 840 24.81 12.5 54.4 30 -4.8 23.4
17:35 1011 29.85 840 24.81 12.4 54.3 30 -4.8 23.4
17:40 1011 29.85 840 24.81 12.4 54.3 30 -4.6 23.8
17:45 1011 29.85 840 24.81 12.4 54.4 30 -4.6 23.7
17:50 1011 29.85 840 24.81 12.5 54.4 30 -4.6 23.8
17:55 1011 29.85 840 24.81 12.5 54.4 29 -5.3 22.5
18:00 1011 29.85 840 24.81 12.4 54.4 28 -5.6 22
18:05 1011 29.85 840 24.81 12.4 54.2 29 -5.1 22.8
18:10 1011 29.85 840 24.81 12.2 53.9 31 -4.5 23.9
18:15 1011 29.85 840 24.81 11.9 53.5 32 -4.4 24.1
18:20 1011 29.85 840 24.81 11.8 53.2 32 -4.4 24.2
18:25 1011 29.85 840 24.81 11.7 53 33 -4 24.7
18:30 1011 29.85 840 24.81 11.6 52.9 33 -4.1 24.6
18:35 1011 29.85 840 24.81 11.6 52.8 33 -4.2 24.5
18:40 1011 29.85 840 24.81 11.5 52.7 35 -3.3 26.1
18:45 1011 29.85 840 24.81 11.2 52.2 35 -3.7 25.3
18:50 1011 29.85 840 24.81 11.1 52.1 36 -3.2 26.2
18:55 1011 29.85 840 24.81 11 51.8 37 -3 26.6
19:00 1011 29.85 840 24.81 10.8 51.4 37 -3.3 26.1
19:05 1011 29.85 840 24.81 10.7 51.3 38 -2.9 26.8
19:10 1011 29.85 840 24.81 10.5 51 40 -2.5 27.6
19:15 1011 29.85 840 24.81 10.4 50.7 41 -2.4 27.7
19:20 1011 29.85 840 24.81 10.3 50.6 40 -2.6 27.4
19:25 1011 29.85 840 24.81 10.3 50.5 40 -2.6 27.3
19:30 1011 29.85 840 24.81 10.2 50.4 41 -2.4 27.6
19:35 1011 29.85 840 24.81 10.1 50.2 42 -2.1 28.1
19:40 1011 29.85 840 24.81 10 49.9 42 -2.2 28.1
19:45 1011 29.85 840 24.81 9.8 49.6 43 -2.2 28.1
19:50 1011 29.85 840 24.81 9.7 49.4 43 -2.2 28
19:55 1011 29.85 840 24.81 9.5 49.1 44 -2.3 27.9
20:00 1011 29.85 840 24.81 9.3 48.8 44 -2.2 28.1
20:05 1011 29.85 840 24.81 9.2 48.6 44 -2.4 27.6
20:10 1011 29.85 840 24.81 9.2 48.5 44 -2.5 27.5
20:15 1011 29.85 840 24.81 9.2 48.5 43 -2.8 27
20:20 1011 29.85 840 24.81 9.3 48.7 42 -3.1 26.5
20:25 1011 29.85 840 24.81 9.3 48.8 41 -3.1 26.4
20:30 1011 29.85 841 24.83 9.4 48.8 41 -3.2 26.3
20:35 1011 29.85 841 24.83 9.4 48.9 42 -3 26.7
20:40 1012 29.88 841 24.83 9.2 48.6 43 -2.8 27
20:45 1012 29.88 841 24.83 9 48.2 45 -2.4 27.6
20:50 1012 29.88 841 24.83 8.9 47.9 44 -2.7 27.2
20:55 1012 29.88 841 24.83 8.9 48 46 -1.9 28.5
21:00 1012 29.88 841 24.83 8.5 47.2 50 -1.4 29.4
21:05 1012 29.88 841 24.83 8.3 46.9 48 -2.1 28.3
21:10 1012 29.88 841 24.83 8.7 47.6 46 -2.2 28
21:15 1012 29.88 841 24.83 8.9 47.9 46 -2.2 28
21:20 1012 29.88 841 24.83 8.9 47.9 46 -2 28.5
21:25 1012 29.88 841 24.83 8.7 47.7 47 -1.9 28.6
21:30 1012 29.88 841 24.83 8.6 47.5 48 -1.7 28.9
21:35 1012 29.88 841 24.83 8.4 47.1 49 -1.6 29.1
21:40 1012 29.88 841 24.83 8.2 46.8 49 -1.7 29
21:45 1012 29.88 841 24.83 8.2 46.8 50 -1.6 29
21:50 1012 29.88 841 24.83 8.2 46.7 50 -1.7 29
21:55 1012 29.88 841 24.83 8.2 46.7 50 -1.7 28.9
22:00 1012 29.88 841 24.83 8.2 46.7 50 -1.7 28.9
22:05 1012 29.88 841 24.83 8.2 46.7 50 -1.6 29.1
22:10 1012 29.88 841 24.83 8.1 46.7 50 -1.5 29.2
22:15 1012 29.88 841 24.83 8.1 46.6 50 -1.7 29
22:20 1012 29.88 841 24.83 8.1 46.7 50 -1.7 29
22:25 1012 29.88 841 24.83 8.1 46.5 49 -2 28.4
22:30 1012 29.88 841 24.83 8.2 46.7 49 -2 28.4
22:35 1012 29.88 841 24.83 8 46.4 49 -2.1 28.3
22:40 1012 29.88 841 24.83 7.9 46.2 52 -1.3 29.7
22:45 1012 29.88 841 24.83 7.6 45.6 53 -1.3 29.6
22:50 1012 29.88 841 24.83 7.4 45.2 55 -1.1 30
22:55 1012 29.88 841 24.83 7.2 44.9 56 -1 30.1
23:00 1012 29.88 841 24.83 7.1 44.8 56 -0.9 30.3
23:05 1012 29.88 841 24.83 7.1 44.8 57 -0.8 30.6
23:10 1012 29.88 841 24.83 7 44.6 58 -0.7 30.8
23:15 1012 29.88 841 24.83 6.7 44.1 59 -0.6 31
23:20 1012 29.88 841 24.83 6.5 43.8 60 -0.7 30.7
23:25 1012 29.88 841 24.83 6.4 43.5 59 -1.1 30
23:30 1012 29.88 841 24.83 6.5 43.7 58 -1.3 29.7
23:35 1012 29.88 841 24.83 6.5 43.7 57 -1.5 29.3
23:40 1012 29.88 841 24.83 6.5 43.7 57 -1.3 29.6
23:45 1012 29.88 841 24.83 6.4 43.5 57 -1.4 29.5
23:50 1012 29.88 841 24.83 6.3 43.4 56 -1.9 28.6
23:55 1012 29.88 841 24.83 6.3 43.4 54 -2.2 28.1
24:00 1012 29.88 841 24.83 6.8 44.2 49 -3.3 26.1